createdAt,value
2019-02-27T00:00:33.071Z,28.57
2019-02-27T00:03:02.064Z,23.12
2019-02-27T00:05:31.157Z,23.67
2019-02-27T00:08:00.150Z,25.90
2019-02-27T00:10:29.241Z,19.20
2019-02-27T00:12:58.345Z,16.62
2019-02-27T00:15:27.436Z,17.17
2019-02-27T00:17:56.527Z,19.52
2019-02-27T00:20:25.630Z,20.10
2019-02-27T00:22:54.624Z,17.92
2019-02-27T00:25:23.617Z,18.17
2019-02-27T00:27:52.611Z,22.90
2019-02-27T00:30:21.604Z,18.80
2019-02-27T00:32:51.253Z,14.93
2019-02-27T00:35:20.818Z,15.65
2019-02-27T00:37:51.826Z,16.40
2019-02-27T00:40:20.347Z,16.97
2019-02-27T00:42:49.333Z,17.40
2019-02-27T00:45:18.326Z,19.48
2019-02-27T00:47:47.321Z,24.57
2019-02-27T00:50:16.411Z,23.52
2019-02-27T00:52:45.505Z,23.45
2019-02-27T00:55:14.398Z,19.80
2019-02-27T00:57:43.492Z,16.00
2019-02-27T01:00:16.494Z,16.32
2019-02-27T01:02:45.363Z,17.95
2019-02-27T01:05:14.573Z,17.25
2019-02-27T01:07:43.572Z,13.98
2019-02-27T01:10:13.059Z,13.98
2019-02-27T01:12:41.957Z,12.90
2019-02-27T01:15:12.587Z,12.23
2019-02-27T01:17:41.788Z,11.70
2019-02-27T01:20:15.397Z,12.68
2019-02-27T01:22:44.690Z,11.88
2019-02-27T01:25:13.828Z,11.95
2019-02-27T01:27:42.864Z,13.13
2019-02-27T01:30:18.331Z,14.15
2019-02-27T01:32:47.322Z,18.95
2019-02-27T01:35:18.757Z,17.98
2019-02-27T01:37:46.945Z,15.78
2019-02-27T01:40:18.656Z,16.30
2019-02-27T01:42:47.694Z,15.20
2019-02-27T01:45:20.574Z,16.12
2019-02-27T01:47:47.737Z,12.07
2019-02-27T01:50:30.388Z,10.98
2019-02-27T01:52:59.333Z,9.73
2019-02-27T01:55:29.461Z,9.53
2019-02-27T01:57:58.453Z,8.90
2019-02-27T02:00:27.445Z,6.53
2019-02-27T02:02:56.438Z,5.58
2019-02-27T02:05:27.511Z,4.83
2019-02-27T02:07:56.573Z,6.45
2019-02-27T02:10:28.054Z,6.10
2019-02-27T02:13:14.753Z,6.12
2019-02-27T02:16:05.532Z,6.37
2019-02-27T02:18:37.394Z,6.75
2019-02-27T02:21:35.048Z,7.50
2019-02-27T02:24:27.707Z,6.60
2019-02-27T02:27:08.849Z,7.30
2019-02-27T02:30:02.158Z,7.00
2019-02-27T02:32:34.010Z,6.03
2019-02-27T02:35:31.555Z,6.42
2019-02-27T02:38:12.401Z,5.83
2019-02-27T02:40:48.584Z,6.60
2019-02-27T02:43:26.098Z,7.28
2019-02-27T02:45:57.954Z,6.50
2019-02-27T02:48:38.523Z,6.87
2019-02-27T02:51:19.202Z,7.53
2019-02-27T02:54:12.451Z,5.47
2019-02-27T02:56:44.309Z,6.00
2019-02-27T02:59:34.398Z,6.70
2019-02-27T03:02:33.597Z,7.22
2019-02-27T03:05:05.409Z,7.03
2019-02-27T03:07:56.875Z,7.87
2019-02-27T03:10:53.009Z,6.90
2019-02-27T03:13:34.082Z,6.25
2019-02-27T03:16:11.777Z,7.60
2019-02-27T03:18:43.649Z,5.95
2019-02-27T03:21:28.814Z,5.10
2019-02-27T03:24:06.714Z,4.72
2019-02-27T03:26:54.857Z,5.22
2019-02-27T03:29:38.394Z,4.50
2019-02-27T03:32:41.267Z,3.98
2019-02-27T03:35:39.417Z,3.95
2019-02-27T03:38:30.464Z,4.42
2019-02-27T03:41:22.832Z,4.33
2019-02-27T03:46:33.593Z,5.10
2019-02-27T03:49:08.323Z,4.85
2019-02-27T03:51:49.092Z,5.50
2019-02-27T03:54:45.123Z,4.75
2019-02-27T03:57:25.871Z,4.50
2019-02-27T04:00:26.624Z,4.90
2019-02-27T04:03:04.629Z,4.97
2019-02-27T04:05:41.902Z,4.42
2019-02-27T04:08:15.517Z,5.35
2019-02-27T04:10:44.510Z,4.17
2019-02-27T04:13:13.509Z,4.53
2019-02-27T04:15:42.496Z,5.10
2019-02-27T04:18:10.150Z,4.65
2019-02-27T04:20:39.144Z,5.22
2019-02-27T04:23:11.476Z,5.10
2019-02-27T04:25:38.567Z,4.92
2019-02-27T04:28:07.461Z,4.37
2019-02-27T04:30:36.454Z,5.35
2019-02-27T04:33:05.447Z,5.00
2019-02-27T04:35:34.424Z,5.03
2019-02-27T04:38:03.440Z,4.60
2019-02-27T04:40:32.427Z,5.17
2019-02-27T04:43:01.310Z,4.78
2019-02-27T04:45:30.203Z,5.33
2019-02-27T04:47:59.040Z,5.87
2019-02-27T04:50:28.091Z,5.70
2019-02-27T04:52:58.035Z,5.12
2019-02-27T04:55:27.614Z,4.83
2019-02-27T04:57:56.607Z,5.25
2019-02-27T05:00:26.251Z,4.85
2019-02-27T05:02:55.935Z,5.45
2019-02-27T05:05:24.815Z,4.67
2019-02-27T05:07:54.369Z,5.17
2019-02-27T05:10:23.920Z,5.75
2019-02-27T05:12:52.816Z,5.40
2019-02-27T05:15:21.708Z,6.30
2019-02-27T05:17:53.078Z,5.85
2019-02-27T05:20:21.065Z,5.55
2019-02-27T05:22:50.015Z,6.72
2019-02-27T05:25:18.910Z,6.30
2019-02-27T05:27:47.902Z,6.25
2019-02-27T05:30:16.872Z,6.70
2019-02-27T05:32:45.889Z,6.42
2019-02-27T05:35:14.883Z,6.58
2019-02-27T05:37:43.882Z,6.97
2019-02-27T05:40:12.873Z,6.97
2019-02-27T05:42:41.862Z,6.03
2019-02-27T05:45:12.464Z,6.28
2019-02-27T05:47:44.706Z,7.03
2019-02-27T05:50:12.908Z,7.22
2019-02-27T05:52:41.827Z,6.45
2019-02-27T05:55:10.714Z,6.42
2019-02-27T05:57:39.608Z,6.15
2019-02-27T06:00:14.127Z,6.85
2019-02-27T06:02:44.972Z,6.72
2019-02-27T06:05:13.556Z,7.05
2019-02-27T06:07:42.550Z,7.83
2019-02-27T06:10:19.745Z,7.53
2019-02-27T06:12:47.080Z,8.08
2019-02-27T06:15:19.453Z,6.78
2019-02-27T06:20:18.055Z,10.38
2019-02-27T06:22:46.947Z,9.43
2019-02-27T06:25:23.342Z,9.58
2019-02-27T06:27:51.078Z,7.25
2019-02-27T06:30:21.448Z,8.15
2019-02-27T06:32:50.393Z,7.35
2019-02-27T06:35:19.366Z,7.47
2019-02-27T06:37:50.768Z,7.45
2019-02-27T06:40:19.116Z,8.55
2019-02-27T06:42:48.109Z,7.65
2019-02-27T06:45:17.842Z,7.50
2019-02-27T06:47:46.808Z,8.00
2019-02-27T06:50:16.560Z,7.75
2019-02-27T06:52:45.616Z,8.50
2019-02-27T06:55:15.435Z,8.85
2019-02-27T06:57:44.524Z,9.88
2019-02-27T07:00:19.146Z,9.50
2019-02-27T07:02:48.228Z,8.95
2019-02-27T07:05:17.132Z,9.13
2019-02-27T07:07:46.043Z,8.48
2019-02-27T07:10:20.020Z,8.55
2019-02-27T07:12:54.281Z,9.15
2019-02-27T07:15:22.531Z,8.43
2019-02-27T07:17:51.523Z,9.80
2019-02-27T07:20:23.890Z,10.18
2019-02-27T07:22:51.145Z,8.70
2019-02-27T07:25:20.320Z,9.28
2019-02-27T07:27:49.337Z,10.15
2019-02-27T07:30:20.183Z,9.50
2019-02-27T07:32:49.171Z,10.23
2019-02-27T07:35:18.201Z,9.83
2019-02-27T07:37:48.194Z,9.88
2019-02-27T07:40:21.040Z,10.70
2019-02-27T07:42:50.059Z,9.58
2019-02-27T07:45:22.993Z,9.63
2019-02-27T07:47:52.041Z,11.43
2019-02-27T07:50:21.838Z,10.20
2019-02-27T07:52:52.097Z,10.45
2019-02-27T07:55:23.004Z,11.03
2019-02-27T07:57:52.003Z,11.05
2019-02-27T08:00:21.946Z,11.30
2019-02-27T08:02:50.933Z,11.40
2019-02-27T08:05:19.903Z,12.30
2019-02-27T08:07:49.762Z,10.85
2019-02-27T08:10:25.957Z,9.93
2019-02-27T08:12:56.450Z,10.88
2019-02-27T08:15:25.793Z,11.95
2019-02-27T08:17:58.016Z,10.63
2019-02-27T08:20:26.860Z,10.50
2019-02-27T08:22:55.762Z,9.88
2019-02-27T08:25:24.628Z,10.58
2019-02-27T08:27:54.194Z,9.48
2019-02-27T08:30:25.499Z,11.20
2019-02-27T08:32:55.414Z,8.90
2019-02-27T08:35:25.005Z,9.15
2019-02-27T08:38:02.238Z,8.50
2019-02-27T08:40:25.233Z,9.00
2019-02-27T08:42:54.351Z,8.80
2019-02-27T08:45:26.728Z,10.25
2019-02-27T08:47:55.669Z,9.53
2019-02-27T08:50:26.046Z,8.13
2019-02-27T08:52:55.040Z,8.40
2019-02-27T08:55:24.031Z,9.48
2019-02-27T08:57:56.932Z,8.90
2019-02-27T09:00:33.384Z,8.85
2019-02-27T09:03:03.561Z,9.28
2019-02-27T09:05:32.699Z,9.00
2019-02-27T09:08:01.595Z,9.75
2019-02-27T09:10:31.033Z,10.00
2019-02-27T09:13:05.232Z,10.03
2019-02-27T09:15:30.610Z,10.08
2019-02-27T09:18:01.780Z,9.50
2019-02-27T09:20:30.037Z,11.93
2019-02-27T09:22:58.931Z,11.88
2019-02-27T09:25:27.924Z,8.88
2019-02-27T09:27:56.917Z,9.70
2019-02-27T09:30:29.360Z,23.45
2019-02-27T09:32:56.844Z,9.08
2019-02-27T09:35:25.738Z,14.10
2019-02-27T09:37:54.736Z,17.75
2019-02-27T09:40:24.983Z,9.38
2019-02-27T09:42:54.109Z,10.18
2019-02-27T09:45:31.421Z,8.88
2019-02-27T09:48:00.790Z,8.30
2019-02-27T09:50:41.688Z,6.20
2019-02-27T09:53:10.576Z,7.75
2019-02-27T09:55:39.495Z,7.42
2019-02-27T09:58:11.230Z,6.58
2019-02-27T10:00:52.916Z,6.95
2019-02-27T10:03:21.853Z,6.95
2019-02-27T10:05:50.828Z,8.60
2019-02-27T10:08:19.820Z,6.78
2019-02-27T10:10:48.912Z,6.45
2019-02-27T10:13:17.808Z,6.95
2019-02-27T10:15:46.799Z,7.30
2019-02-27T10:18:18.356Z,7.15
2019-02-27T10:20:46.321Z,7.40
2019-02-27T10:23:15.316Z,6.15
2019-02-27T10:25:44.239Z,6.45
2019-02-27T10:28:13.300Z,6.20
2019-02-27T10:30:42.294Z,6.03
2019-02-27T10:33:11.928Z,6.92
2019-02-27T10:35:40.996Z,8.38
2019-02-27T10:38:09.887Z,6.87
2019-02-27T10:40:38.776Z,6.17
2019-02-27T10:43:07.874Z,5.45
2019-02-27T10:45:36.871Z,6.10
2019-02-27T10:48:05.863Z,6.12
2019-02-27T10:50:35.488Z,7.05
2019-02-27T10:53:05.178Z,7.15
2019-02-27T10:55:34.068Z,8.60
2019-02-27T10:58:03.062Z,6.42
2019-02-27T11:00:33.176Z,6.78
2019-02-27T11:03:02.688Z,5.80
2019-02-27T11:05:38.839Z,5.00
2019-02-27T11:08:07.942Z,5.42
2019-02-27T11:10:36.938Z,4.67
2019-02-27T11:13:06.874Z,4.70
2019-02-27T11:15:41.129Z,4.87
2019-02-27T11:18:06.991Z,6.45
2019-02-27T11:20:35.983Z,5.72
2019-02-27T11:23:07.078Z,6.28
2019-02-27T11:25:35.817Z,5.10
2019-02-27T11:28:05.112Z,6.00
2019-02-27T11:30:39.333Z,6.65
2019-02-27T11:33:08.324Z,5.28
2019-02-27T11:35:37.315Z,8.85
2019-02-27T11:38:06.614Z,6.53
2019-02-27T11:40:35.607Z,8.23
2019-02-27T11:43:07.010Z,6.50
2019-02-27T11:45:35.128Z,6.62
2019-02-27T11:48:04.121Z,7.58
2019-02-27T11:50:33.117Z,8.58
2019-02-27T11:53:02.902Z,8.50
2019-02-27T11:55:32.021Z,6.60
2019-02-27T11:58:04.607Z,5.10
2019-02-27T12:00:32.062Z,6.08
2019-02-27T12:03:00.944Z,7.42
2019-02-27T12:05:33.899Z,8.18
2019-02-27T12:08:00.365Z,6.95
2019-02-27T12:10:33.024Z,15.70
2019-02-27T12:13:02.045Z,5.05
2019-02-27T12:15:31.112Z,6.70
2019-02-27T12:18:01.315Z,7.67
2019-02-27T12:20:30.839Z,11.53
2019-02-27T12:22:59.744Z,13.43
2019-02-27T12:25:30.184Z,11.38
2019-02-27T12:27:59.376Z,7.25
2019-02-27T12:30:29.816Z,11.88
2019-02-27T12:32:58.928Z,6.87
2019-02-27T12:35:33.735Z,5.28
2019-02-27T12:38:06.887Z,8.60
2019-02-27T12:40:33.349Z,10.88
2019-02-27T12:43:02.243Z,6.75
2019-02-27T12:45:31.661Z,6.75
2019-02-27T12:48:00.635Z,5.45
2019-02-27T12:50:31.374Z,5.30
2019-02-27T12:53:00.673Z,5.60
2019-02-27T12:55:29.767Z,5.95
2019-02-27T12:57:58.662Z,11.48
2019-02-27T13:00:29.700Z,25.00
2019-02-27T13:02:59.270Z,6.47
2019-02-27T13:05:29.044Z,6.05
2019-02-27T13:07:58.088Z,6.72
2019-02-27T13:10:33.019Z,5.60
2019-02-27T13:12:58.482Z,6.75
2019-02-27T13:15:29.369Z,6.35
2019-02-27T13:17:58.481Z,5.67
2019-02-27T13:20:34.847Z,7.62
2019-02-27T13:23:05.291Z,6.70
2019-02-27T13:25:34.578Z,8.63
2019-02-27T13:28:03.580Z,8.45
2019-02-27T13:30:32.421Z,7.97
2019-02-27T13:33:02.170Z,8.00
2019-02-27T13:35:31.265Z,7.75
2019-02-27T13:38:19.611Z,6.78
2019-02-27T13:41:10.523Z,7.92
2019-02-27T13:43:38.598Z,8.55
2019-02-27T13:46:07.590Z,9.13
2019-02-27T13:48:37.416Z,10.35
2019-02-27T13:51:07.114Z,9.20
2019-02-27T13:53:36.106Z,8.55
2019-02-27T13:56:05.100Z,8.98
2019-02-27T13:58:36.463Z,8.98
2019-02-27T14:01:04.730Z,8.70
2019-02-27T14:03:35.463Z,8.58
2019-02-27T14:06:06.242Z,8.75
2019-02-27T14:08:35.078Z,8.63
2019-02-27T14:11:03.978Z,9.88
2019-02-27T14:13:32.967Z,12.20
2019-02-27T14:16:01.848Z,10.30
2019-02-27T14:18:30.743Z,10.23
2019-02-27T14:21:01.775Z,10.75
2019-02-27T14:23:30.265Z,9.25
2019-02-27T14:25:59.159Z,8.80
2019-02-27T14:28:28.152Z,9.93
2019-02-27T14:30:57.146Z,10.05
2019-02-27T14:33:26.018Z,10.48
2019-02-27T14:35:54.924Z,11.70
2019-02-27T14:38:23.932Z,14.40
2019-02-27T14:40:52.813Z,11.22
2019-02-27T14:43:21.698Z,13.85
2019-02-27T14:45:50.885Z,13.90
2019-02-27T14:48:21.409Z,13.18
2019-02-27T14:50:50.629Z,11.95
2019-02-27T14:53:19.866Z,14.38
2019-02-27T14:55:48.919Z,15.28
2019-02-27T14:58:17.912Z,14.05
2019-02-27T15:00:46.906Z,12.63
2019-02-27T15:03:15.899Z,12.30
2019-02-27T15:05:45.252Z,13.62
2019-02-27T15:08:14.389Z,13.48
2019-02-27T15:10:43.372Z,15.80
2019-02-27T15:13:12.277Z,14.63
2019-02-27T15:15:43.845Z,13.03
2019-02-27T15:18:11.700Z,14.38
2019-02-27T15:20:41.210Z,14.23
2019-02-27T15:23:10.304Z,14.38
2019-02-27T15:25:42.466Z,16.37
2019-02-27T15:28:09.823Z,15.55
2019-02-27T15:30:38.816Z,14.98
2019-02-27T15:33:07.811Z,17.57
2019-02-27T15:35:36.805Z,17.90
2019-02-27T15:38:05.797Z,17.73
2019-02-27T15:40:34.789Z,20.17
2019-02-27T15:43:10.967Z,17.80
2019-02-27T15:45:34.311Z,18.55
2019-02-27T15:48:06.293Z,19.57
2019-02-27T15:50:35.161Z,20.50
2019-02-27T15:53:04.384Z,26.68
2019-02-27T15:55:35.108Z,23.95
2019-02-27T15:58:03.883Z,26.45
2019-02-27T16:00:32.877Z,29.20
2019-02-27T16:03:01.871Z,33.20
2019-02-27T16:05:31.746Z,37.35
2019-02-27T16:08:00.975Z,38.30
2019-02-27T16:10:30.008Z,34.03
2019-02-27T16:13:00.987Z,32.42
2019-02-27T16:15:29.601Z,31.42
2019-02-27T16:17:58.594Z,29.55
2019-02-27T16:20:28.349Z,27.95
2019-02-27T16:22:57.300Z,29.85
2019-02-27T16:25:27.620Z,26.45
2019-02-27T16:27:56.720Z,33.65
2019-02-27T16:30:31.073Z,34.03
2019-02-27T16:32:58.702Z,35.17
2019-02-27T16:35:27.690Z,29.48
2019-02-27T16:37:57.735Z,30.32
2019-02-27T16:40:31.313Z,33.90
2019-02-27T16:43:00.199Z,40.40
2019-02-27T16:45:37.089Z,39.50
2019-02-27T16:48:06.485Z,40.75
2019-02-27T16:50:35.476Z,41.35
2019-02-27T16:53:04.465Z,41.30
2019-02-27T16:55:36.987Z,41.42
2019-02-27T16:58:03.987Z,41.98
2019-02-27T17:00:35.233Z,39.88
2019-02-27T17:03:04.228Z,34.88
2019-02-27T17:05:33.117Z,31.93
2019-02-27T17:08:02.870Z,31.02
2019-02-27T17:10:38.663Z,28.07
2019-02-27T17:13:07.667Z,27.52
2019-02-27T17:15:36.590Z,28.90
2019-02-27T17:18:05.566Z,25.90
2019-02-27T17:20:34.549Z,25.02
2019-02-27T17:23:07.663Z,24.27
2019-02-27T17:25:34.075Z,25.00
2019-02-27T17:28:02.974Z,25.68
2019-02-27T17:30:37.736Z,27.35
2019-02-27T17:33:05.282Z,30.25
2019-02-27T17:35:34.351Z,28.42
2019-02-27T17:38:03.301Z,26.87
2019-02-27T17:40:36.507Z,29.98
2019-02-27T17:43:03.069Z,31.02
2019-02-27T17:45:32.066Z,39.35
2019-02-27T17:48:01.181Z,41.85
2019-02-27T17:50:31.740Z,31.52
2019-02-27T17:53:00.576Z,28.45
2019-02-27T17:55:29.459Z,31.97
2019-02-27T17:57:59.198Z,29.85
2019-02-27T18:00:33.698Z,27.52
2019-02-27T18:03:04.899Z,25.82
2019-02-27T18:05:33.221Z,25.27
2019-02-27T18:08:03.467Z,23.30
2019-02-27T18:10:37.265Z,21.52
2019-02-27T18:13:03.275Z,21.70
2019-02-27T18:15:32.264Z,28.45
2019-02-27T18:18:01.305Z,30.45
2019-02-27T18:20:31.880Z,33.58
2019-02-27T18:23:00.780Z,21.70
2019-02-27T18:25:29.781Z,18.50
2019-02-27T18:27:59.780Z,23.77
2019-02-27T18:30:28.802Z,25.82
2019-02-27T18:32:57.772Z,30.00
2019-02-27T18:35:29.622Z,39.98
2019-02-27T18:37:57.302Z,32.67
2019-02-27T18:40:28.220Z,31.25
2019-02-27T18:42:57.129Z,30.72
2019-02-27T18:45:30.651Z,29.60
2019-02-27T18:47:59.457Z,28.40
2019-02-27T18:50:28.407Z,29.10
2019-02-27T18:52:57.403Z,31.55
2019-02-27T18:55:45.498Z,25.70
2019-02-27T18:58:14.648Z,24.77
2019-02-27T19:00:43.538Z,23.83
2019-02-27T19:03:12.984Z,21.17
2019-02-27T19:05:42.267Z,20.95
2019-02-27T19:08:11.156Z,21.07
2019-02-27T19:10:42.449Z,22.17
2019-02-27T19:13:10.753Z,23.15
2019-02-27T19:15:42.706Z,21.33
2019-02-27T19:18:10.580Z,19.45
2019-02-27T19:20:42.843Z,20.23
2019-02-27T19:23:17.411Z,18.30
2019-02-27T19:25:42.883Z,18.70
2019-02-27T19:28:12.081Z,19.12
2019-02-27T19:30:41.793Z,18.37
2019-02-27T19:33:11.602Z,19.55
2019-02-27T19:35:40.594Z,20.97
2019-02-27T19:38:12.578Z,23.67
2019-02-27T19:40:40.116Z,26.45
2019-02-27T19:43:09.311Z,20.75
2019-02-27T19:45:38.202Z,20.88
2019-02-27T19:48:07.097Z,18.75
2019-02-27T19:50:36.099Z,18.55
2019-02-27T19:53:06.959Z,17.92
2019-02-27T19:55:35.717Z,17.62
2019-02-27T19:58:04.604Z,16.82
2019-02-27T20:00:35.372Z,19.75
2019-02-27T20:03:04.741Z,18.00
2019-02-27T20:05:33.734Z,21.68
2019-02-27T20:08:03.723Z,19.67
2019-02-27T20:10:33.352Z,19.37
2019-02-27T20:13:02.448Z,17.87
2019-02-27T20:15:31.551Z,18.07
2019-02-27T20:18:00.782Z,19.90
2019-02-27T20:20:30.151Z,33.83
2019-02-27T20:22:59.245Z,24.32
2019-02-27T20:25:30.356Z,20.10
2019-02-27T20:27:59.279Z,18.70
2019-02-27T20:30:28.296Z,18.80
2019-02-27T20:32:59.824Z,18.67
2019-02-27T20:35:27.776Z,21.48
2019-02-27T20:37:56.794Z,21.93
2019-02-27T20:40:27.618Z,21.00
2019-02-27T20:42:56.311Z,19.57
2019-02-27T20:45:26.750Z,20.05
2019-02-27T20:48:00.519Z,19.45
2019-02-27T20:50:38.227Z,17.27
2019-02-27T20:53:12.058Z,17.42
2019-02-27T20:55:41.036Z,17.35
2019-02-27T20:58:09.930Z,18.55
2019-02-27T21:00:38.814Z,19.37
2019-02-27T21:03:07.709Z,18.32
2019-02-27T21:05:55.956Z,18.50
2019-02-27T21:08:24.950Z,19.37
2019-02-27T21:10:55.171Z,18.37
2019-02-27T21:13:24.502Z,18.30
2019-02-27T21:15:53.466Z,20.77
2019-02-27T21:18:22.460Z,22.55
2019-02-27T21:20:51.454Z,19.98
2019-02-27T21:23:20.445Z,19.92
2019-02-27T21:25:49.904Z,17.87
2019-02-27T21:28:21.201Z,19.10
2019-02-27T21:30:52.448Z,18.45
2019-02-27T21:33:21.642Z,19.05
2019-02-27T21:35:50.635Z,20.12
2019-02-27T21:38:19.626Z,17.17
2019-02-27T21:40:48.621Z,18.05
2019-02-27T21:43:17.613Z,17.25
2019-02-27T21:45:46.606Z,17.80
2019-02-27T21:48:15.600Z,20.60
2019-02-27T21:50:45.287Z,22.95
2019-02-27T21:53:14.516Z,23.07
2019-02-27T21:55:44.715Z,21.45
2019-02-27T21:58:20.302Z,19.32
2019-02-27T22:00:44.947Z,20.37
2019-02-27T22:03:15.084Z,18.92
2019-02-27T22:05:45.307Z,21.55
2019-02-27T22:08:14.299Z,18.07
2019-02-27T22:10:43.308Z,22.48
2019-02-27T22:13:12.286Z,18.75
2019-02-27T22:15:41.288Z,19.82
2019-02-27T22:18:11.871Z,20.20
2019-02-27T22:20:41.108Z,17.42
2019-02-27T22:23:12.674Z,20.30
2019-02-27T22:25:40.633Z,18.20
2019-02-27T22:28:09.624Z,19.75
2019-02-27T22:30:38.617Z,20.45
2019-02-27T22:33:07.610Z,18.32
2019-02-27T22:35:37.806Z,18.30
2019-02-27T22:38:07.352Z,18.30
2019-02-27T22:40:37.901Z,18.50
2019-02-27T22:43:06.733Z,18.60
2019-02-27T22:45:40.077Z,20.10
2019-02-27T22:48:06.267Z,21.23
2019-02-27T22:50:35.169Z,24.90
2019-02-27T22:53:04.163Z,23.77
2019-02-27T22:55:33.160Z,22.95
2019-02-27T22:58:02.148Z,23.00
2019-02-27T23:00:55.892Z,21.70
2019-02-27T23:03:30.032Z,18.27
2019-02-27T23:05:59.233Z,17.70
2019-02-27T23:08:28.227Z,17.15
2019-02-27T23:10:57.296Z,15.98
2019-02-27T23:13:26.212Z,17.27
2019-02-27T23:15:58.185Z,17.62
2019-02-27T23:18:25.736Z,17.05
2019-02-27T23:20:55.536Z,17.23
2019-02-27T23:23:33.359Z,15.80
2019-02-27T23:26:01.930Z,15.23
2019-02-27T23:28:34.548Z,15.88
2019-02-27T23:31:01.454Z,16.35
2019-02-27T23:33:30.446Z,14.23
2019-02-27T23:35:59.440Z,16.02
2019-02-27T23:38:28.322Z,16.45
2019-02-27T23:40:57.217Z,15.15
2019-02-27T23:43:26.110Z,13.72
2019-02-27T23:45:55.105Z,14.28
2019-02-27T23:48:24.096Z,13.53
2019-02-27T23:50:53.091Z,14.60
2019-02-27T23:53:24.471Z,14.18
2019-02-27T23:55:52.613Z,14.43
2019-02-27T23:58:21.605Z,13.88
